sensor_id;sensor_type;location;lat;lon;timestamp;pressure;altitude;pressure_sealevel;temperature;humidity
37068;BME280;22982;42.848;25.468;2022-08-25T00:00:40;96011.50;;;19.18;100.00
37068;BME280;22982;42.848;25.468;2022-08-25T00:05:44;95995.09;;;18.86;100.00
37068;BME280;22982;42.848;25.468;2022-08-25T00:10:46;95991.53;;;18.68;100.00
37068;BME280;22982;42.848;25.468;2022-08-25T00:16:04;96009.00;;;18.70;100.00
37068;BME280;22982;42.848;25.468;2022-08-25T00:21:06;96011.41;;;18.64;100.00
37068;BME280;22982;42.848;25.468;2022-08-25T00:26:10;95995.66;;;18.80;100.00
37068;BME280;22982;42.848;25.468;2022-08-25T00:31:16;95995.94;;;18.87;100.00
37068;BME280;22982;42.848;25.468;2022-08-25T00:36:19;95991.53;;;18.68;100.00
37068;BME280;22982;42.848;25.468;2022-08-25T00:41:23;95972.03;;;18.59;100.00
37068;BME280;22982;42.848;25.468;2022-08-25T00:46:32;95976.81;;;18.28;100.00
37068;BME280;22982;42.848;25.468;2022-08-25T00:51:42;95990.22;;;18.26;100.00
37068;BME280;22982;42.848;25.468;2022-08-25T00:56:46;95988.63;;;18.43;100.00
37068;BME280;22982;42.848;25.468;2022-08-25T01:01:50;95985.28;;;18.41;100.00
37068;BME280;22982;42.848;25.468;2022-08-25T01:06:52;95964.44;;;18.18;100.00
37068;BME280;22982;42.848;25.468;2022-08-25T01:11:56;95970.63;;;18.09;100.00
37068;BME280;22982;42.848;25.468;2022-08-25T01:16:59;95967.69;;;18.12;100.00
37068;BME280;22982;42.848;25.468;2022-08-25T01:22:02;95969.44;;;18.22;100.00
37068;BME280;22982;42.848;25.468;2022-08-25T01:27:05;95963.59;;;18.18;100.00
37068;BME280;22982;42.848;25.468;2022-08-25T01:32:10;95959.31;;;18.07;100.00
37068;BME280;22982;42.848;25.468;2022-08-25T01:37:15;95961.47;;;17.94;100.00
37068;BME280;22982;42.848;25.468;2022-08-25T01:47:39;95941.88;;;18.05;100.00
37068;BME280;22982;42.848;25.468;2022-08-25T01:57:47;95922.50;;;18.22;100.00
37068;BME280;22982;42.848;25.468;2022-08-25T02:02:49;95912.31;;;18.45;100.00
37068;BME280;22982;42.848;25.468;2022-08-25T02:07:56;95911.81;;;18.78;100.00
37068;BME280;22982;42.848;25.468;2022-08-25T02:12:58;95911.16;;;18.93;100.00
37068;BME280;22982;42.848;25.468;2022-08-25T02:18:01;95905.97;;;19.10;100.00
37068;BME280;22982;42.848;25.468;2022-08-25T02:23:03;95926.03;;;19.04;100.00
37068;BME280;22982;42.848;25.468;2022-08-25T02:28:07;95926.69;;;19.06;100.00
37068;BME280;22982;42.848;25.468;2022-08-25T02:33:10;95919.81;;;18.96;100.00
37068;BME280;22982;42.848;25.468;2022-08-25T02:38:12;95915.97;;;18.80;100.00
37068;BME280;22982;42.848;25.468;2022-08-25T02:43:14;95918.56;;;18.54;100.00
37068;BME280;22982;42.848;25.468;2022-08-25T02:48:17;95904.50;;;18.62;100.00
37068;BME280;22982;42.848;25.468;2022-08-25T02:53:20;95921.66;;;18.49;100.00
37068;BME280;22982;42.848;25.468;2022-08-25T02:58:23;95907.53;;;18.31;100.00
37068;BME280;22982;42.848;25.468;2022-08-25T03:03:25;95914.94;;;18.27;100.00
37068;BME280;22982;42.848;25.468;2022-08-25T03:08:27;95917.38;;;18.39;100.00
37068;BME280;22982;42.848;25.468;2022-08-25T03:13:31;95905.41;;;18.34;100.00
37068;BME280;22982;42.848;25.468;2022-08-25T03:18:33;95900.03;;;18.44;100.00
37068;BME280;22982;42.848;25.468;2022-08-25T03:23:36;95910.66;;;18.80;100.00
37068;BME280;22982;42.848;25.468;2022-08-25T03:28:38;95907.78;;;19.09;100.00
37068;BME280;22982;42.848;25.468;2022-08-25T03:33:42;95920.13;;;19.19;100.00
37068;BME280;22982;42.848;25.468;2022-08-25T03:38:44;95927.53;;;19.33;100.00
37068;BME280;22982;42.848;25.468;2022-08-25T03:43:47;95919.22;;;19.28;100.00
37068;BME280;22982;42.848;25.468;2022-08-25T03:48:50;95910.88;;;19.49;100.00
37068;BME280;22982;42.848;25.468;2022-08-25T03:53:53;95929.69;;;19.74;100.00
37068;BME280;22982;42.848;25.468;2022-08-25T03:58:56;95933.41;;;19.89;100.00
37068;BME280;22982;42.848;25.468;2022-08-25T04:03:59;95940.47;;;20.06;100.00
37068;BME280;22982;42.848;25.468;2022-08-25T04:09:01;95935.22;;;20.23;100.00
37068;BME280;22982;42.848;25.468;2022-08-25T04:14:03;95929.78;;;20.33;100.00
37068;BME280;22982;42.848;25.468;2022-08-25T04:19:07;95944.75;;;20.34;100.00
37068;BME280;22982;42.848;25.468;2022-08-25T04:24:11;95936.09;;;20.32;100.00
37068;BME280;22982;42.848;25.468;2022-08-25T04:29:17;95934.81;;;20.52;100.00
37068;BME280;22982;42.848;25.468;2022-08-25T04:34:25;95929.03;;;20.65;100.00
37068;BME280;22982;42.848;25.468;2022-08-25T04:39:32;95922.38;;;20.61;100.00
37068;BME280;22982;42.848;25.468;2022-08-25T04:44:34;95923.56;;;20.75;100.00
37068;BME280;22982;42.848;25.468;2022-08-25T04:49:36;95933.91;;;20.86;100.00
37068;BME280;22982;42.848;25.468;2022-08-25T04:54:39;95931.91;;;21.04;100.00
37068;BME280;22982;42.848;25.468;2022-08-25T04:59:41;95927.09;;;21.16;100.00
37068;BME280;22982;42.848;25.468;2022-08-25T05:04:43;95928.09;;;21.15;100.00
37068;BME280;22982;42.848;25.468;2022-08-25T05:09:46;95926.78;;;21.19;100.00
37068;BME280;22982;42.848;25.468;2022-08-25T05:14:51;95927.09;;;21.41;100.00
37068;BME280;22982;42.848;25.468;2022-08-25T05:19:53;95931.94;;;21.29;100.00
37068;BME280;22982;42.848;25.468;2022-08-25T05:24:55;95928.38;;;21.70;100.00
37068;BME280;22982;42.848;25.468;2022-08-25T05:29:58;95930.47;;;22.07;100.00
37068;BME280;22982;42.848;25.468;2022-08-25T05:35:00;95942.88;;;22.40;100.00
37068;BME280;22982;42.848;25.468;2022-08-25T05:40:04;95950.72;;;22.72;100.00
37068;BME280;22982;42.848;25.468;2022-08-25T05:45:07;95942.00;;;23.63;100.00
37068;BME280;22982;42.848;25.468;2022-08-25T05:50:17;95939.59;;;25.52;87.63
37068;BME280;22982;42.848;25.468;2022-08-25T05:55:19;95953.88;;;24.94;89.01
37068;BME280;22982;42.848;25.468;2022-08-25T06:00:22;95942.91;;;23.93;93.18
37068;BME280;22982;42.848;25.468;2022-08-25T06:05:24;95930.22;;;25.41;88.43
37068;BME280;22982;42.848;25.468;2022-08-25T06:10:27;95899.59;;;29.37;67.10
37068;BME280;22982;42.848;25.468;2022-08-25T06:15:29;95898.78;;;28.73;64.94
37068;BME280;22982;42.848;25.468;2022-08-25T06:20:32;95905.56;;;29.96;61.20
37068;BME280;22982;42.848;25.468;2022-08-25T06:25:34;95914.38;;;32.04;54.24
37068;BME280;22982;42.848;25.468;2022-08-25T06:30:38;95902.31;;;34.40;44.45
37068;BME280;22982;42.848;25.468;2022-08-25T06:35:41;95899.31;;;33.18;47.33
37068;BME280;22982;42.848;25.468;2022-08-25T06:40:46;95902.44;;;32.17;49.99
37068;BME280;22982;42.848;25.468;2022-08-25T06:45:50;95912.66;;;29.66;55.80
37068;BME280;22982;42.848;25.468;2022-08-25T06:50:52;95927.03;;;27.32;65.98
37068;BME280;22982;42.848;25.468;2022-08-25T06:55:56;95930.09;;;26.54;71.93
37068;BME280;22982;42.848;25.468;2022-08-25T07:01:10;95925.53;;;25.50;75.97
37068;BME280;22982;42.848;25.468;2022-08-25T07:06:21;95919.41;;;25.34;78.38
37068;BME280;22982;42.848;25.468;2022-08-25T07:11:23;95924.94;;;25.54;75.24
37068;BME280;22982;42.848;25.468;2022-08-25T07:16:25;95919.97;;;25.79;72.49
37068;BME280;22982;42.848;25.468;2022-08-25T07:21:33;95932.34;;;26.02;68.36
37068;BME280;22982;42.848;25.468;2022-08-25T07:26:38;95925.66;;;26.81;67.44
37068;BME280;22982;42.848;25.468;2022-08-25T07:31:41;95915.72;;;28.29;59.23
37068;BME280;22982;42.848;25.468;2022-08-25T07:36:44;95913.25;;;28.86;57.20
37068;BME280;22982;42.848;25.468;2022-08-25T07:41:46;95914.03;;;29.25;56.68
37068;BME280;22982;42.848;25.468;2022-08-25T07:47:09;95913.81;;;30.02;52.03
37068;BME280;22982;42.848;25.468;2022-08-25T07:52:12;95928.59;;;31.64;47.35
37068;BME280;22982;42.848;25.468;2022-08-25T07:57:14;95922.69;;;30.27;51.48
37068;BME280;22982;42.848;25.468;2022-08-25T08:02:18;95919.44;;;30.92;50.02
37068;BME280;22982;42.848;25.468;2022-08-25T08:07:23;95916.47;;;32.02;46.78
37068;BME280;22982;42.848;25.468;2022-08-25T08:12:43;95923.59;;;30.21;53.03
37068;BME280;22982;42.848;25.468;2022-08-25T08:17:46;95916.41;;;31.01;51.38
37068;BME280;22982;42.848;25.468;2022-08-25T08:22:49;95919.03;;;30.89;50.08
37068;BME280;22982;42.848;25.468;2022-08-25T08:27:51;95914.44;;;30.59;49.47
37068;BME280;22982;42.848;25.468;2022-08-25T08:32:55;95923.03;;;30.38;49.95
37068;BME280;22982;42.848;25.468;2022-08-25T08:38:13;95919.56;;;28.98;55.35
37068;BME280;22982;42.848;25.468;2022-08-25T08:43:23;95931.50;;;28.25;57.36
37068;BME280;22982;42.848;25.468;2022-08-25T08:48:45;95929.13;;;28.49;58.13
37068;BME280;22982;42.848;25.468;2022-08-25T09:04:17;95901.56;;;28.92;56.07
37068;BME280;22982;42.848;25.468;2022-08-25T09:09:30;95886.78;;;29.83;52.28
37068;BME280;22982;42.848;25.468;2022-08-25T09:20:32;95858.09;;;30.68;47.34
37068;BME280;22982;42.848;25.468;2022-08-25T09:31:25;95854.94;;;31.79;43.20
37068;BME280;22982;42.848;25.468;2022-08-25T09:36:31;95850.56;;;32.13;42.70
37068;BME280;22982;42.848;25.468;2022-08-25T09:46:56;95867.09;;;30.31;46.89
37068;BME280;22982;42.848;25.468;2022-08-25T09:57:33;95844.47;;;31.59;43.76
37068;BME280;22982;42.848;25.468;2022-08-25T10:02:36;95847.00;;;31.30;42.29
37068;BME280;22982;42.848;25.468;2022-08-25T10:07:49;95852.16;;;30.78;42.74
37068;BME280;22982;42.848;25.468;2022-08-25T10:12:53;95837.00;;;31.19;41.71
37068;BME280;22982;42.848;25.468;2022-08-25T10:18:23;95838.47;;;30.72;43.19
37068;BME280;22982;42.848;25.468;2022-08-25T10:23:27;95804.06;;;29.57;44.54
37068;BME280;22982;42.848;25.468;2022-08-25T10:28:57;95830.38;;;29.43;46.78
37068;BME280;22982;42.848;25.468;2022-08-25T10:34:37;95803.75;;;28.71;49.18
37068;BME280;22982;42.848;25.468;2022-08-25T10:45:24;95838.84;;;28.13;54.05
37068;BME280;22982;42.848;25.468;2022-08-25T10:51:05;95840.56;;;28.00;53.51
37068;BME280;22982;42.848;25.468;2022-08-25T10:56:28;95833.25;;;28.14;53.35
37068;BME280;22982;42.848;25.468;2022-08-25T11:07:10;95814.34;;;29.23;49.15
37068;BME280;22982;42.848;25.468;2022-08-25T11:12:33;95821.25;;;29.12;48.92
37068;BME280;22982;42.848;25.468;2022-08-25T11:18:04;95829.69;;;28.97;49.56
37068;BME280;22982;42.848;25.468;2022-08-25T11:23:32;95808.72;;;29.50;50.29
37068;BME280;22982;42.848;25.468;2022-08-25T11:33:44;95814.59;;;31.12;45.11
37068;BME280;22982;42.848;25.468;2022-08-25T11:44:11;95802.00;;;30.63;45.91
37068;BME280;22982;42.848;25.468;2022-08-25T11:54:43;95804.16;;;31.39;44.32
37068;BME280;22982;42.848;25.468;2022-08-25T12:04:52;95804.63;;;30.82;44.77
37068;BME280;22982;42.848;25.468;2022-08-25T12:25:57;95792.00;;;29.16;50.28
37068;BME280;22982;42.848;25.468;2022-08-25T12:36:32;95789.13;;;28.86;52.13
37068;BME280;22982;42.848;25.468;2022-08-25T12:41:35;95789.72;;;29.38;48.72
37068;BME280;22982;42.848;25.468;2022-08-25T12:47:10;95785.50;;;29.86;47.95
37068;BME280;22982;42.848;25.468;2022-08-25T12:52:16;95782.03;;;29.97;46.93
37068;BME280;22982;42.848;25.468;2022-08-25T13:14:07;95776.63;;;29.16;49.84
37068;BME280;22982;42.848;25.468;2022-08-25T13:19:18;95775.13;;;29.20;48.78
37068;BME280;22982;42.848;25.468;2022-08-25T13:24:32;95757.06;;;29.39;48.10
37068;BME280;22982;42.848;25.468;2022-08-25T13:29:54;95744.09;;;29.30;48.81
37068;BME280;22982;42.848;25.468;2022-08-25T13:35:14;95737.97;;;28.91;50.24
37068;BME280;22982;42.848;25.468;2022-08-25T13:40:29;95747.09;;;28.96;49.18
37068;BME280;22982;42.848;25.468;2022-08-25T13:45:40;95730.56;;;29.11;48.66
37068;BME280;22982;42.848;25.468;2022-08-25T13:50:44;95708.72;;;29.38;48.99
37068;BME280;22982;42.848;25.468;2022-08-25T13:55:58;95703.47;;;29.80;47.63
37068;BME280;22982;42.848;25.468;2022-08-25T14:06:29;95696.22;;;29.74;46.29
37068;BME280;22982;42.848;25.468;2022-08-25T14:11:47;95705.78;;;28.96;49.23
37068;BME280;22982;42.848;25.468;2022-08-25T14:17:04;95699.16;;;28.92;49.86
37068;BME280;22982;42.848;25.468;2022-08-25T14:22:27;95711.00;;;29.16;49.29
37068;BME280;22982;42.848;25.468;2022-08-25T14:27:30;95707.25;;;29.17;48.57
37068;BME280;22982;42.848;25.468;2022-08-25T14:32:32;95704.50;;;28.98;50.27
37068;BME280;22982;42.848;25.468;2022-08-25T14:37:36;95701.91;;;28.85;50.73
37068;BME280;22982;42.848;25.468;2022-08-25T14:42:39;95698.84;;;28.81;49.65
37068;BME280;22982;42.848;25.468;2022-08-25T14:47:41;95683.63;;;28.87;49.32
37068;BME280;22982;42.848;25.468;2022-08-25T14:52:50;95686.53;;;29.11;49.22
37068;BME280;22982;42.848;25.468;2022-08-25T14:57:58;95705.66;;;29.09;50.21
37068;BME280;22982;42.848;25.468;2022-08-25T15:03:03;95698.28;;;28.98;51.43
37068;BME280;22982;42.848;25.468;2022-08-25T15:08:06;95710.13;;;28.97;52.16
37068;BME280;22982;42.848;25.468;2022-08-25T15:13:33;95689.88;;;28.88;52.79
37068;BME280;22982;42.848;25.468;2022-08-25T15:18:36;95698.06;;;28.74;54.46
37068;BME280;22982;42.848;25.468;2022-08-25T15:23:38;95693.56;;;28.68;53.43
37068;BME280;22982;42.848;25.468;2022-08-25T15:28:47;95681.25;;;28.54;54.93
37068;BME280;22982;42.848;25.468;2022-08-25T15:33:50;95659.25;;;28.50;53.18
37068;BME280;22982;42.848;25.468;2022-08-25T15:38:53;95653.97;;;28.37;53.85
37068;BME280;22982;42.848;25.468;2022-08-25T15:43:55;95660.00;;;28.32;55.27
37068;BME280;22982;42.848;25.468;2022-08-25T15:48:59;95663.22;;;28.22;54.58
37068;BME280;22982;42.848;25.468;2022-08-25T15:54:01;95663.34;;;28.02;54.71
37068;BME280;22982;42.848;25.468;2022-08-25T15:59:04;95670.00;;;27.93;56.01
37068;BME280;22982;42.848;25.468;2022-08-25T16:04:10;95667.56;;;27.85;54.56
37068;BME280;22982;42.848;25.468;2022-08-25T16:09:12;95673.06;;;27.52;59.49
37068;BME280;22982;42.848;25.468;2022-08-25T16:14:15;95662.84;;;27.28;58.76
37068;BME280;22982;42.848;25.468;2022-08-25T16:19:17;95680.84;;;27.21;60.77
37068;BME280;22982;42.848;25.468;2022-08-25T16:24:19;95651.09;;;26.89;64.16
37068;BME280;22982;42.848;25.468;2022-08-25T16:29:21;95633.53;;;26.53;67.63
37068;BME280;22982;42.848;25.468;2022-08-25T16:34:25;95672.81;;;26.41;70.98
37068;BME280;22982;42.848;25.468;2022-08-25T16:39:31;95659.16;;;26.09;71.02
37068;BME280;22982;42.848;25.468;2022-08-25T16:44:34;95640.28;;;25.83;73.10
37068;BME280;22982;42.848;25.468;2022-08-25T16:49:36;95666.81;;;25.51;72.93
37068;BME280;22982;42.848;25.468;2022-08-25T16:54:39;95659.59;;;25.10;74.32
37068;BME280;22982;42.848;25.468;2022-08-25T16:59:59;95673.22;;;25.08;75.16
37068;BME280;22982;42.848;25.468;2022-08-25T17:05:02;95681.28;;;24.80;75.53
37068;BME280;22982;42.848;25.468;2022-08-25T17:10:06;95686.16;;;24.48;77.72
37068;BME280;22982;42.848;25.468;2022-08-25T17:15:13;95676.50;;;24.25;78.08
37068;BME280;22982;42.848;25.468;2022-08-25T17:20:22;95691.69;;;23.97;85.97
37068;BME280;22982;42.848;25.468;2022-08-25T17:25:28;95685.72;;;23.65;87.91
37068;BME280;22982;42.848;25.468;2022-08-25T17:30:30;95675.47;;;22.87;94.14
37068;BME280;22982;42.848;25.468;2022-08-25T17:35:38;95690.66;;;22.72;99.20
37068;BME280;22982;42.848;25.468;2022-08-25T17:40:42;95709.81;;;22.75;98.97
37068;BME280;22982;42.848;25.468;2022-08-25T17:45:44;95708.78;;;22.62;98.57
37068;BME280;22982;42.848;25.468;2022-08-25T17:50:50;95717.25;;;22.50;100.00
37068;BME280;22982;42.848;25.468;2022-08-25T17:56:03;95715.88;;;22.08;100.00
37068;BME280;22982;42.848;25.468;2022-08-25T18:01:19;95732.34;;;21.89;100.00
37068;BME280;22982;42.848;25.468;2022-08-25T18:06:24;95716.34;;;21.57;100.00
37068;BME280;22982;42.848;25.468;2022-08-25T18:11:29;95721.78;;;21.25;100.00
37068;BME280;22982;42.848;25.468;2022-08-25T18:16:32;95733.53;;;21.55;100.00
37068;BME280;22982;42.848;25.468;2022-08-25T18:21:35;95724.75;;;21.30;100.00
37068;BME280;22982;42.848;25.468;2022-08-25T18:26:37;95723.94;;;20.73;100.00
37068;BME280;22982;42.848;25.468;2022-08-25T18:31:43;95738.03;;;20.98;100.00
37068;BME280;22982;42.848;25.468;2022-08-25T18:36:49;95739.88;;;20.90;100.00
37068;BME280;22982;42.848;25.468;2022-08-25T18:41:53;95736.56;;;20.88;100.00
37068;BME280;22982;42.848;25.468;2022-08-25T18:46:57;95753.88;;;20.59;100.00
37068;BME280;22982;42.848;25.468;2022-08-25T18:52:00;95741.72;;;20.48;100.00
37068;BME280;22982;42.848;25.468;2022-08-25T18:57:06;95758.88;;;20.29;100.00
37068;BME280;22982;42.848;25.468;2022-08-25T19:03:14;95758.53;;;20.24;100.00
37068;BME280;22982;42.848;25.468;2022-08-25T19:08:18;95770.50;;;20.28;100.00
37068;BME280;22982;42.848;25.468;2022-08-25T19:13:22;95777.97;;;20.08;100.00
37068;BME280;22982;42.848;25.468;2022-08-25T19:18:25;95792.09;;;20.08;100.00
37068;BME280;22982;42.848;25.468;2022-08-25T19:23:30;95784.94;;;20.09;100.00
37068;BME280;22982;42.848;25.468;2022-08-25T19:28:34;95783.09;;;20.01;100.00
37068;BME280;22982;42.848;25.468;2022-08-25T19:33:37;95777.78;;;19.93;100.00
37068;BME280;22982;42.848;25.468;2022-08-25T19:38:46;95785.81;;;20.26;100.00
37068;BME280;22982;42.848;25.468;2022-08-25T19:43:49;95779.19;;;20.38;100.00
37068;BME280;22982;42.848;25.468;2022-08-25T19:48:58;95768.81;;;20.02;100.00
37068;BME280;22982;42.848;25.468;2022-08-25T19:54:07;95762.16;;;19.98;100.00
37068;BME280;22982;42.848;25.468;2022-08-25T19:59:11;95750.16;;;19.94;100.00
37068;BME280;22982;42.848;25.468;2022-08-25T20:04:16;95734.09;;;20.20;100.00
37068;BME280;22982;42.848;25.468;2022-08-25T20:09:29;95753.88;;;20.34;100.00
37068;BME280;22982;42.848;25.468;2022-08-25T20:14:47;95752.84;;;20.02;100.00
37068;BME280;22982;42.848;25.468;2022-08-25T20:19:52;95750.47;;;19.83;100.00
37068;BME280;22982;42.848;25.468;2022-08-25T20:24:59;95746.81;;;19.76;100.00
37068;BME280;22982;42.848;25.468;2022-08-25T20:30:05;95751.91;;;19.69;100.00
37068;BME280;22982;42.848;25.468;2022-08-25T20:35:10;95744.16;;;19.76;100.00
37068;BME280;22982;42.848;25.468;2022-08-25T20:40:17;95737.09;;;19.66;100.00
37068;BME280;22982;42.848;25.468;2022-08-25T20:45:26;95735.38;;;19.92;100.00
37068;BME280;22982;42.848;25.468;2022-08-25T20:50:28;95744.88;;;20.11;100.00
37068;BME280;22982;42.848;25.468;2022-08-25T20:55:31;95759.88;;;20.28;100.00
37068;BME280;22982;42.848;25.468;2022-08-25T21:00:43;95759.53;;;20.23;100.00
37068;BME280;22982;42.848;25.468;2022-08-25T21:05:46;95747.63;;;19.76;100.00
37068;BME280;22982;42.848;25.468;2022-08-25T21:10:54;95741.88;;;19.12;100.00
37068;BME280;22982;42.848;25.468;2022-08-25T21:15:56;95767.69;;;18.93;100.00
37068;BME280;22982;42.848;25.468;2022-08-25T21:21:08;95756.59;;;18.80;100.00
37068;BME280;22982;42.848;25.468;2022-08-25T21:26:15;95756.19;;;18.67;100.00
37068;BME280;22982;42.848;25.468;2022-08-25T21:31:19;95769.13;;;18.70;100.00
37068;BME280;22982;42.848;25.468;2022-08-25T21:36:22;95765.41;;;18.54;100.00
37068;BME280;22982;42.848;25.468;2022-08-25T21:41:29;95753.88;;;18.28;100.00
37068;BME280;22982;42.848;25.468;2022-08-25T21:46:38;95751.91;;;18.30;100.00
37068;BME280;22982;42.848;25.468;2022-08-25T21:51:42;95750.94;;;18.31;100.00
37068;BME280;22982;42.848;25.468;2022-08-25T21:57:01;95754.03;;;18.26;100.00
37068;BME280;22982;42.848;25.468;2022-08-25T22:02:06;95745.69;;;18.21;100.00
37068;BME280;22982;42.848;25.468;2022-08-25T22:07:09;95749.75;;;18.07;100.00
37068;BME280;22982;42.848;25.468;2022-08-25T22:12:12;95748.44;;;18.11;100.00
37068;BME280;22982;42.848;25.468;2022-08-25T22:17:16;95747.16;;;18.15;100.00
37068;BME280;22982;42.848;25.468;2022-08-25T22:22:24;95774.19;;;18.01;100.00
37068;BME280;22982;42.848;25.468;2022-08-25T22:27:27;95775.50;;;17.97;100.00
37068;BME280;22982;42.848;25.468;2022-08-25T22:32:30;95777.94;;;17.80;100.00
37068;BME280;22982;42.848;25.468;2022-08-25T22:37:32;95767.25;;;17.72;100.00
37068;BME280;22982;42.848;25.468;2022-08-25T22:42:35;95754.69;;;17.74;100.00
37068;BME280;22982;42.848;25.468;2022-08-25T22:47:38;95755.59;;;17.65;100.00
37068;BME280;22982;42.848;25.468;2022-08-25T22:52:42;95761.47;;;17.59;100.00
37068;BME280;22982;42.848;25.468;2022-08-25T22:57:46;95743.31;;;17.64;100.00
37068;BME280;22982;42.848;25.468;2022-08-25T23:02:48;95738.28;;;17.89;100.00
37068;BME280;22982;42.848;25.468;2022-08-25T23:07:54;95745.28;;;17.62;100.00
37068;BME280;22982;42.848;25.468;2022-08-25T23:12:56;95722.50;;;17.41;100.00
37068;BME280;22982;42.848;25.468;2022-08-25T23:17:58;95724.97;;;17.53;100.00
37068;BME280;22982;42.848;25.468;2022-08-25T23:23:00;95733.66;;;17.63;100.00
37068;BME280;22982;42.848;25.468;2022-08-25T23:28:03;95738.66;;;17.94;100.00
37068;BME280;22982;42.848;25.468;2022-08-25T23:33:05;95734.13;;;18.04;100.00
37068;BME280;22982;42.848;25.468;2022-08-25T23:38:09;95727.47;;;18.00;100.00
37068;BME280;22982;42.848;25.468;2022-08-25T23:43:13;95726.69;;;18.08;100.00
37068;BME280;22982;42.848;25.468;2022-08-25T23:48:16;95726.91;;;18.14;100.00
37068;BME280;22982;42.848;25.468;2022-08-25T23:53:19;95737.78;;;18.03;100.00
37068;BME280;22982;42.848;25.468;2022-08-25T23:58:22;95730.38;;;17.79;100.00
